Time;durP1;ratioP1;P1;durP2;ratioP2;P2;SDS_P1;SDS_P2;PMS_P1;PMS_P2;Temp;Humidity;BMP_temperature;BMP_pressure;BME280_temperature;BME280_humidity;BME280_pressure;Samples;Min_cycle;Max_cycle;Signal;HPM_P1;HPM_P2
2021/04/21 00:04:59;;;;;;;10.52;4.32;;;9.10;99.90;;;;;;13077443;22;20042;-80
2021/04/21 00:10:00;;;;;;;8.10;4.10;;;9.00;99.90;;;;;;13077029;22;20013;-80
2021/04/21 00:15:00;;;;;;;9.45;3.97;;;8.90;99.90;;;;;;13051168;22;20037;-80
2021/04/21 00:20:02;;;;;;;9.38;4.47;;;8.90;99.90;;;;;;13078604;22;20078;-80
2021/04/21 00:25:04;;;;;;;8.55;3.65;;;8.90;99.90;;;;;;13077642;22;20011;-80
2021/04/21 00:30:08;;;;;;;13.98;3.90;;;8.80;99.90;;;;;;13050184;22;20018;-80
2021/04/21 00:35:12;;;;;;;9.00;3.53;;;8.70;99.90;;;;;;13102597;22;20462;-80
2021/04/21 00:40:17;;;;;;;8.80;3.75;;;8.60;99.90;;;;;;13104011;22;20541;-80
2021/04/21 00:45:18;;;;;;;12.95;4.38;;;8.60;99.90;;;;;;13077226;22;20504;-80
2021/04/21 00:50:30;;;;;;;11.45;4.07;;;8.40;99.90;;;;;;13077113;22;20137;-80
2021/04/21 00:55:51;;;;;;;14.32;4.18;;;8.30;99.90;;;;;;13076809;22;20007;-80
2021/04/21 01:00:54;;;;;;;10.68;3.95;;;8.30;99.90;;;;;;13078005;22;20014;-81
2021/04/21 01:06:01;;;;;;;10.68;4.25;;;8.20;99.90;;;;;;13102239;22;20457;-81
2021/04/21 01:11:01;;;;;;;11.38;4.78;;;8.10;99.90;;;;;;13103141;22;20042;-82
2021/04/21 01:16:04;;;;;;;8.23;3.75;;;8.10;99.90;;;;;;13076931;22;20015;-81
2021/04/21 01:21:09;;;;;;;14.00;5.03;;;8.10;99.90;;;;;;13102487;22;20006;-81
2021/04/21 01:26:18;;;;;;;12.57;5.28;;;8.00;99.90;;;;;;13076356;22;20064;-81
2021/04/21 01:31:21;;;;;;;12.55;4.75;;;8.00;99.90;;;;;;13103007;22;20037;-81
2021/04/21 01:36:23;;;;;;;11.20;4.43;;;7.90;99.90;;;;;;13103626;22;20094;-81
2021/04/21 01:41:28;;;;;;;14.40;5.60;;;7.80;99.90;;;;;;13049816;22;20156;-81
2021/04/21 01:46:36;;;;;;;11.05;5.68;;;7.80;99.90;;;;;;13101898;22;20083;-81
2021/04/21 01:51:42;;;;;;;11.98;4.28;;;7.80;99.90;;;;;;13076544;22;20019;-81
2021/04/21 01:56:56;;;;;;;11.63;5.63;;;7.80;99.90;;;;;;13075576;22;20010;-81
2021/04/21 02:02:00;;;;;;;15.75;5.22;;;7.70;99.90;;;;;;13102921;22;19999;-81
2021/04/21 02:07:22;;;;;;;9.38;4.43;;;7.70;99.90;;;;;;13105232;22;20109;-81
2021/04/21 02:12:37;;;;;;;15.02;4.78;;;7.70;99.90;;;;;;13103659;22;20026;-81
2021/04/21 02:18:08;;;;;;;12.95;6.78;;;7.70;99.90;;;;;;13076456;22;20026;-81
2021/04/21 02:23:16;;;;;;;16.42;5.53;;;7.60;99.90;;;;;;13075993;22;20015;-81
2021/04/21 02:28:20;;;;;;;10.55;4.45;;;7.50;99.90;;;;;;13073800;22;20011;-81
2021/04/21 02:33:27;;;;;;;14.15;5.53;;;7.50;99.90;;;;;;13106586;22;20019;-82
2021/04/21 02:38:34;;;;;;;16.30;5.95;;;7.40;99.90;;;;;;13078767;22;20030;-81
2021/04/21 02:43:54;;;;;;;10.68;5.47;;;7.40;99.90;;;;;;13077752;22;20011;-81
2021/04/21 02:49:32;;;;;;;11.63;5.88;;;7.40;99.90;;;;;;13105540;22;20018;-81
2021/04/21 02:54:54;;;;;;;13.52;5.30;;;7.30;99.90;;;;;;13080092;22;20015;-81
2021/04/21 03:00:04;;;;;;;10.90;5.03;;;7.20;99.90;;;;;;13103478;22;20011;-81
2021/04/21 03:05:25;;;;;;;13.85;5.20;;;7.20;99.90;;;;;;13077655;22;20007;-81
2021/04/21 03:10:33;;;;;;;11.13;4.68;;;7.10;99.90;;;;;;13105416;22;20057;-81
2021/04/21 03:15:36;;;;;;;14.15;6.07;;;7.00;99.90;;;;;;13104285;22;20086;-81
2021/04/21 03:20:39;;;;;;;16.95;6.10;;;7.00;99.90;;;;;;13106996;22;20045;-80
2021/04/21 03:25:42;;;;;;;11.55;5.20;;;7.10;99.90;;;;;;13105760;22;20369;-81
2021/04/21 03:30:45;;;;;;;15.02;6.28;;;7.00;99.90;;;;;;13056276;22;20280;-81
2021/04/21 03:35:51;;;;;;;18.40;6.28;;;7.10;99.90;;;;;;13083483;22;20266;-80
2021/04/21 03:40:52;;;;;;;14.57;6.10;;;7.10;99.90;;;;;;13115259;22;20628;-80
2021/04/21 03:45:53;;;;;;;14.52;5.43;;;7.20;99.90;;;;;;13047274;22;20040;-80
2021/04/21 03:50:55;;;;;;;15.13;7.28;;;7.20;99.90;;;;;;13101494;22;20006;-80
2021/04/21 03:55:58;;;;;;;14.63;5.50;;;7.20;99.90;;;;;;13023247;22;20010;-81
2021/04/21 04:01:14;;;;;;;18.05;6.25;;;7.10;99.90;;;;;;13101054;22;20521;-81
2021/04/21 04:06:26;;;;;;;16.02;7.38;;;7.00;99.90;;;;;;13074558;22;20015;-80
2021/04/21 04:11:46;;;;;;;14.50;5.40;;;7.00;99.90;;;;;;13073643;22;20011;-81
2021/04/21 04:16:50;;;;;;;19.70;5.45;;;6.90;99.90;;;;;;13073684;22;20006;-81
2021/04/21 04:21:55;;;;;;;9.93;4.38;;;6.80;99.90;;;;;;13049698;22;20010;-81
2021/04/21 04:26:58;;;;;;;14.98;5.82;;;6.70;99.90;;;;;;13100138;22;20006;-81
2021/04/21 04:32:02;;;;;;;13.02;5.15;;;6.70;99.90;;;;;;13074797;22;20018;-81
2021/04/21 04:37:02;;;;;;;12.18;5.03;;;6.60;99.90;;;;;;13074683;22;20011;-81
2021/04/21 04:42:05;;;;;;;12.85;5.35;;;6.60;99.90;;;;;;13047593;22;20015;-81
2021/04/21 04:47:08;;;;;;;15.32;6.03;;;6.60;99.90;;;;;;13074350;22;20517;-81
2021/04/21 04:52:11;;;;;;;13.70;7.28;;;6.60;99.90;;;;;;13101011;22;20015;-81
2021/04/21 04:57:14;;;;;;;15.57;5.80;;;6.70;99.90;;;;;;13099721;22;20082;-81
2021/04/21 05:02:18;;;;;;;15.93;6.63;;;6.80;99.90;;;;;;13076016;22;20089;-81
2021/04/21 05:07:27;;;;;;;15.05;6.15;;;6.80;99.90;;;;;;13048750;22;20018;-81
2021/04/21 05:12:31;;;;;;;19.52;6.00;;;6.80;99.90;;;;;;13073150;22;20018;-81
2021/04/21 05:18:04;;;;;;;19.02;6.38;;;6.90;99.90;;;;;;13102441;22;20007;-81
2021/04/21 05:23:41;;;;;;;13.07;5.57;;;7.00;99.90;;;;;;13101315;22;20003;-81
2021/04/21 05:29:36;;;;;;;15.10;5.57;;;7.00;99.90;;;;;;13102681;22;20022;-81
2021/04/21 05:34:55;;;;;;;14.52;6.13;;;7.10;99.90;;;;;;12962701;22;20377;-82
2021/04/21 05:40:24;;;;;;;16.88;6.20;;;7.20;99.90;;;;;;13075650;22;20361;-81
2021/04/21 05:45:48;;;;;;;32.72;12.23;;;7.30;99.90;;;;;;13100800;22;20093;-84
2021/04/21 05:51:26;;;;;;;18.55;8.27;;;7.50;99.90;;;;;;13102156;22;20033;-82
2021/04/21 05:56:54;;;;;;;16.17;6.28;;;7.70;99.90;;;;;;13106842;22;20466;-82
2021/04/21 06:01:56;;;;;;;18.30;7.38;;;7.80;99.90;;;;;;13082094;22;20011;-82
2021/04/21 06:07:07;;;;;;;18.83;7.72;;;7.90;99.90;;;;;;13056504;22;20439;-81
2021/04/21 06:12:16;;;;;;;15.90;6.65;;;8.20;99.90;;;;;;13110180;22;20048;-83
2021/04/21 06:17:24;;;;;;;15.02;8.52;;;8.30;99.90;;;;;;13063884;22;20065;-83
2021/04/21 06:22:29;;;;;;;15.23;8.03;;;8.50;99.90;;;;;;13113193;22;20335;-83
2021/04/21 06:27:31;;;;;;;15.30;6.65;;;8.60;99.90;;;;;;13059612;22;20093;-83
2021/04/21 06:32:32;;;;;;;16.80;6.75;;;8.70;99.90;;;;;;13112441;22;20015;-82
2021/04/21 06:37:35;;;;;;;16.95;6.65;;;8.90;99.90;;;;;;13084921;22;20015;-82
2021/04/21 06:42:36;;;;;;;15.45;6.05;;;9.00;99.90;;;;;;13114044;22;20027;-83
2021/04/21 06:47:42;;;;;;;17.75;7.53;;;9.30;99.90;;;;;;13059861;22;20459;-82
2021/04/21 06:52:44;;;;;;;18.67;7.60;;;9.50;99.90;;;;;;13111084;22;20023;-83
2021/04/21 06:57:45;;;;;;;16.10;7.38;;;9.80;99.90;;;;;;13059019;22;20058;-83
2021/04/21 07:02:48;;;;;;;23.77;8.68;;;10.00;99.90;;;;;;13086426;22;20030;-85
2021/04/21 07:07:50;;;;;;;17.65;7.53;;;10.10;99.90;;;;;;13118036;22;20003;-87
2021/04/21 07:12:51;;;;;;;19.75;8.73;;;10.30;99.90;;;;;;13116399;22;20135;-84
2021/04/21 07:17:52;;;;;;;24.17;9.40;;;10.50;99.90;;;;;;13084427;22;20030;-85
2021/04/21 07:22:54;;;;;;;21.05;8.63;;;10.70;99.90;;;;;;13107575;22;20049;-81
2021/04/21 07:27:56;;;;;;;26.67;8.68;;;10.90;99.90;;;;;;13055184;22;20015;-81
2021/04/21 07:32:57;;;;;;;22.85;8.93;;;11.10;99.90;;;;;;13057759;22;20018;-82
2021/04/21 07:37:58;;;;;;;24.33;10.02;;;11.20;99.90;;;;;;13027899;22;20453;-83
2021/04/21 07:43:06;;;;;;;21.92;10.57;;;11.40;99.90;;;;;;13080454;22;20071;-82
2021/04/21 07:48:34;;;;;;;26.20;9.73;;;11.30;99.90;;;;;;13120463;22;20039;-81
2021/04/21 07:53:44;;;;;;;17.88;9.07;;;11.30;99.90;;;;;;13124993;22;20026;-82
2021/04/21 07:58:45;;;;;;;15.52;7.63;;;11.40;99.90;;;;;;13075371;22;20033;-82
2021/04/21 08:03:46;;;;;;;17.42;8.40;;;11.30;99.90;;;;;;13120996;22;20025;-83
2021/04/21 08:08:54;;;;;;;20.23;6.72;;;11.30;99.90;;;;;;13093219;22;20015;-83
2021/04/21 08:13:55;;;;;;;;;;;11.30;99.90;;;;;;13119230;22;20037;-83
2021/04/21 08:18:57;;;;;;;13.35;7.15;;;11.60;99.90;;;;;;13092853;22;19934;-83
2021/04/21 08:24:03;;;;;;;14.32;4.97;;;12.10;99.90;;;;;;13117446;22;20091;-83
2021/04/21 08:29:08;;;;;;;11.05;5.38;;;12.40;99.90;;;;;;13114910;22;20033;-83
2021/04/21 08:34:09;;;;;;;16.45;6.53;;;12.60;99.90;;;;;;13117372;22;20022;-83
2021/04/21 08:39:09;;;;;;;18.23;5.45;;;12.90;99.90;;;;;;13088303;22;20021;-81
2021/04/21 08:44:11;;;;;;;12.73;4.53;;;12.80;99.90;;;;;;13061938;22;20055;-81
2021/04/21 08:49:12;;;;;;;10.57;4.88;;;12.70;99.90;;;;;;13090470;22;20096;-83
2021/04/21 08:54:15;;;;;;;9.73;4.38;;;12.60;99.90;;;;;;13065023;22;20102;-83
2021/04/21 08:59:16;;;;;;;11.00;3.75;;;12.80;99.90;;;;;;13091070;22;20011;-82
2021/04/21 09:04:18;;;;;;;8.25;2.97;;;12.70;99.90;;;;;;13093298;22;20015;-83
2021/04/21 09:09:19;;;;;;;9.82;4.50;;;12.40;99.90;;;;;;13113520;22;20013;-82
2021/04/21 09:14:19;;;;;;;17.70;4.32;;;12.10;99.90;;;;;;13111600;22;20018;-82
2021/04/21 09:19:21;;;;;;;12.80;4.63;;;11.90;99.90;;;;;;13084108;22;20865;-81
2021/04/21 09:24:28;;;;;;;12.63;5.13;;;12.00;99.90;;;;;;13058219;22;20022;-81
2021/04/21 09:29:33;;;;;;;12.55;4.50;;;12.30;99.90;;;;;;13061034;22;20014;-82
2021/04/21 09:34:34;;;;;;;11.32;4.22;;;12.20;99.90;;;;;;13063407;22;20588;-82
2021/04/21 09:39:37;;;;;;;12.00;4.65;;;12.20;99.90;;;;;;13119449;22;20097;-82
2021/04/21 09:44:46;;;;;;;13.00;4.55;;;12.10;99.90;;;;;;13081727;22;20018;-82
2021/04/21 09:49:53;;;;;;;;;;;11.80;99.90;;;;;;13049200;22;20002;-82
2021/04/21 09:54:54;;;;;;;14.52;5.53;;;11.50;99.90;;;;;;13101706;22;20013;-82
2021/04/21 10:00:05;;;;;;;13.38;5.07;;;11.50;99.90;;;;;;13072516;22;20079;-82
2021/04/21 10:05:36;;;;;;;8.05;3.90;;;11.40;99.90;;;;;;13073834;22;20002;-82
2021/04/21 10:10:38;;;;;;;7.95;3.40;;;11.50;99.90;;;;;;13029135;22;20007;-82
2021/04/21 10:15:39;;;;;;;7.13;3.42;;;11.60;99.90;;;;;;13073371;22;20015;-82
2021/04/21 10:20:41;;;;;;;8.25;3.05;;;11.70;99.90;;;;;;13072935;22;20015;-81
2021/04/21 10:25:42;;;;;;;5.55;3.03;;;11.40;99.90;;;;;;13071907;22;20080;-81
2021/04/21 10:30:43;;;;;;;4.88;2.67;;;11.30;99.90;;;;;;13048444;22;20079;-82
2021/04/21 10:35:44;;;;;;;7.47;2.13;;;11.30;99.90;;;;;;13048866;22;20335;-82
2021/04/21 10:40:45;;;;;;;6.40;2.42;;;11.50;99.90;;;;;;13073886;22;20022;-81
2021/04/21 10:45:51;;;;;;;6.90;2.50;;;11.70;99.90;;;;;;13048897;22;20348;-81
2021/04/21 10:50:52;;;;;;;2.80;1.17;;;12.70;99.90;;;;;;13100897;22;20042;-81
2021/04/21 10:55:52;;;;;;;3.83;1.50;;;13.10;99.90;;;;;;13058360;22;20334;-82
2021/04/21 11:00:53;;;;;;;0.90;0.43;;;13.40;99.90;;;;;;13054290;22;20148;-82
2021/04/21 11:06:00;;;;;;;1.63;0.52;;;13.20;99.90;;;;;;13053896;22;20015;-81
2021/04/21 11:11:05;;;;;;;1.13;0.47;;;13.30;99.90;;;;;;13081184;22;20038;-81
2021/04/21 11:16:29;;;;;;;3.40;1.15;;;13.60;99.90;;;;;;13086727;22;20010;-82
2021/04/21 11:21:30;;;;;;;0.90;0.50;;;14.00;99.90;;;;;;13059707;22;20022;-83
2021/04/21 11:26:32;;;;;;;1.75;0.70;;;14.10;99.90;;;;;;13080040;22;20038;-82
2021/04/21 11:31:45;;;;;;;4.53;1.23;;;13.60;99.90;;;;;;13081127;22;20018;-82
2021/04/21 11:37:16;;;;;;;3.85;0.73;;;13.50;99.90;;;;;;13105783;22;20014;-81
2021/04/21 11:42:40;;;;;;;3.25;0.70;;;14.20;99.90;;;;;;13043712;22;20022;-82
2021/04/21 11:47:51;;;;;;;0.70;0.30;;;14.90;99.90;;;;;;13057915;22;20093;-82
2021/04/21 11:52:58;;;;;;;4.95;0.57;;;16.00;99.90;;;;;;13105743;22;20022;-82
2021/04/21 11:58:05;;;;;;;3.65;0.35;;;16.10;99.90;;;;;;13104036;22;20148;-82
2021/04/21 12:03:17;;;;;;;6.97;0.63;;;16.20;99.90;;;;;;13077938;22;20062;-82
2021/04/21 12:08:23;;;;;;;1.10;0.50;;;16.40;99.90;;;;;;13104077;22;20343;-82
2021/04/21 12:13:28;;;;;;;2.13;1.05;;;17.00;99.90;;;;;;13076930;22;20546;-82
2021/04/21 12:19:06;;;;;;;1.15;0.47;;;16.80;99.90;;;;;;13075508;22;20018;-82
2021/04/21 12:24:12;;;;;;;1.20;0.40;;;17.00;99.90;;;;;;12986193;22;20014;-82
2021/04/21 12:29:17;;;;;;;1.80;0.40;;;17.50;99.90;;;;;;13053432;22;20006;-82
2021/04/21 12:34:21;;;;;;;0.77;0.32;;;17.80;99.40;;;;;;13080410;22;20027;-82
2021/04/21 12:39:23;;;;;;;4.22;0.40;;;17.70;97.50;;;;;;13102575;22;20021;-82
2021/04/21 12:44:28;;;;;;;1.30;0.40;;;17.80;98.30;;;;;;13076193;22;20029;-82
2021/04/21 12:49:33;;;;;;;2.67;0.68;;;17.70;96.90;;;;;;13104162;22;20022;-82
2021/04/21 12:54:40;;;;;;;5.45;0.47;;;17.50;97.10;;;;;;13104009;22;20053;-83
2021/04/21 12:59:45;;;;;;;2.03;0.40;;;17.80;98.40;;;;;;13080766;22;20339;-83
2021/04/21 13:04:47;;;;;;;1.48;0.82;;;18.50;94.80;;;;;;13076718;22;20422;-83
2021/04/21 13:09:48;;;;;;;6.15;0.70;;;18.10;95.90;;;;;;13053470;22;20439;-83
2021/04/21 13:14:50;;;;;;;2.55;0.38;;;18.20;95.20;;;;;;13079695;22;20022;-83
2021/04/21 13:19:54;;;;;;;2.40;0.32;;;18.70;93.70;;;;;;13078133;22;20006;-82
2021/04/21 13:24:58;;;;;;;2.25;0.30;;;18.30;92.10;;;;;;13104048;22;20003;-83
2021/04/21 13:30:00;;;;;;;4.18;0.73;;;17.60;94.70;;;;;;13104507;22;20433;-82
2021/04/21 13:35:01;;;;;;;5.60;0.52;;;17.90;95.30;;;;;;13078107;22;20098;-82
2021/04/21 13:40:12;;;;;;;2.20;1.13;;;18.00;94.30;;;;;;13103497;22;20003;-82
2021/04/21 13:45:15;;;;;;;3.17;0.63;;;18.20;91.50;;;;;;13103966;22;20007;-82
2021/04/21 13:50:18;;;;;;;15.65;0.73;;;18.40;94.70;;;;;;13069283;22;20011;-82
2021/04/21 13:55:19;;;;;;;2.28;0.60;;;18.60;88.60;;;;;;13075842;22;20452;-82
2021/04/21 14:00:21;;;;;;;6.90;1.73;;;17.80;93.00;;;;;;13075243;22;20019;-82
2021/04/21 14:05:22;;;;;;;2.35;0.80;;;17.00;93.80;;;;;;13051023;22;20030;-82
2021/04/21 14:10:23;;;;;;;5.28;0.40;;;16.30;94.70;;;;;;13078627;22;20007;-81
2021/04/21 14:15:24;;;;;;;3.15;0.77;;;15.50;98.30;;;;;;13051357;22;20707;-81
2021/04/21 14:20:25;;;;;;;4.15;0.47;;;15.20;99.90;;;;;;13076558;22;20059;-81
2021/04/21 14:25:26;;;;;;;3.90;1.05;;;14.70;99.90;;;;;;13080904;22;20052;-81
2021/04/21 14:30:26;;;;;;;2.13;0.60;;;14.50;99.90;;;;;;13088053;22;20135;-81
2021/04/21 14:35:27;;;;;;;1.98;0.65;;;14.00;99.90;;;;;;13087376;22;20311;-82
2021/04/21 14:40:28;;;;;;;2.05;0.88;;;13.60;99.90;;;;;;13060427;22;20019;-84
2021/04/21 14:45:29;;;;;;;2.20;0.80;;;13.40;99.90;;;;;;13088490;22;20022;-81
2021/04/21 14:50:30;;;;;;;3.47;1.00;;;13.30;99.90;;;;;;13085788;22;20049;-81
2021/04/21 14:55:31;;;;;;;4.15;1.30;;;13.30;99.90;;;;;;13058900;22;20256;-81
2021/04/21 15:00:31;;;;;;;0.98;0.50;;;13.50;99.90;;;;;;13084858;22;20011;-81
2021/04/21 15:05:32;;;;;;;1.80;0.52;;;13.30;99.90;;;;;;13056938;22;20011;-81
2021/04/21 15:10:33;;;;;;;2.15;0.55;;;12.90;99.90;;;;;;13057602;22;20027;-81
2021/04/21 15:15:34;;;;;;;2.10;0.60;;;12.60;99.90;;;;;;13042249;22;20088;-81
2021/04/21 15:20:34;;;;;;;5.20;0.40;;;12.50;99.90;;;;;;13084721;22;20014;-81
2021/04/21 15:25:35;;;;;;;3.30;0.32;;;12.60;99.90;;;;;;13084483;22;20053;-81
2021/04/21 15:30:36;;;;;;;2.33;0.43;;;12.50;99.90;;;;;;13077245;22;20030;-82
2021/04/21 15:35:36;;;;;;;3.83;0.52;;;12.30;99.90;;;;;;13101007;22;20017;-83
2021/04/21 15:40:38;;;;;;;0.65;0.28;;;12.30;99.90;;;;;;13048298;22;20405;-81
2021/04/21 15:45:40;;;;;;;1.70;0.45;;;12.10;99.90;;;;;;13087055;22;20015;-82
2021/04/21 15:50:43;;;;;;;3.50;0.77;;;12.20;99.90;;;;;;13084949;22;20010;-81
2021/04/21 15:55:44;;;;;;;1.80;0.40;;;12.00;99.90;;;;;;13069722;22;20015;-84
2021/04/21 16:00:44;;;;;;;2.92;0.50;;;11.90;99.90;;;;;;13106499;22;20334;-82
2021/04/21 16:05:45;;;;;;;1.77;0.75;;;11.60;99.90;;;;;;13076546;22;20684;-83
2021/04/21 16:10:45;;;;;;;3.50;0.60;;;11.50;99.90;;;;;;13050043;22;20068;-81
2021/04/21 16:15:47;;;;;;;0.93;0.40;;;11.60;99.90;;;;;;13049429;22;20010;-84
2021/04/21 16:20:48;;;;;;;2.35;0.47;;;11.60;99.90;;;;;;13076025;22;20011;-83
2021/04/21 16:25:49;;;;;;;0.95;0.20;;;11.30;99.90;;;;;;13049038;22;20042;-82
2021/04/21 16:30:50;;;;;;;1.05;0.70;;;11.10;99.90;;;;;;13077937;22;20381;-81
2021/04/21 16:35:50;;;;;;;0.55;0.35;;;11.00;99.90;;;;;;13049408;22;20454;-82
2021/04/21 16:40:54;;;;;;;4.22;0.65;;;10.80;99.90;;;;;;13051416;22;20022;-81
2021/04/21 16:45:54;;;;;;;3.35;0.17;;;10.70;99.90;;;;;;13053669;22;20719;-81
2021/04/21 16:50:55;;;;;;;3.85;0.32;;;10.60;99.90;;;;;;13052929;22;20014;-83
2021/04/21 16:55:59;;;;;;;2.40;0.50;;;10.60;99.90;;;;;;13050784;22;20101;-84
2021/04/21 17:01:04;;;;;;;0.98;0.13;;;10.40;99.90;;;;;;13076296;22;20066;-84
2021/04/21 17:06:05;;;;;;;1.10;0.22;;;10.40;99.90;;;;;;13076691;22;20663;-84
2021/04/21 17:11:12;;;;;;;4.82;1.00;;;10.20;99.90;;;;;;13052331;22;20018;-83
2021/04/21 17:16:12;;;;;;;0.63;0.30;;;10.10;99.90;;;;;;13050302;22;20041;-83
2021/04/21 17:21:13;;;;;;;3.35;0.40;;;9.90;99.90;;;;;;13076462;22;20346;-84
2021/04/21 17:26:13;;;;;;;0.25;0.00;;;9.80;99.90;;;;;;13052029;22;20021;-84
2021/04/21 17:31:15;;;;;;;7.50;1.00;;;9.80;99.90;;;;;;13076686;22;20045;-84
2021/04/21 17:36:16;;;;;;;3.78;0.20;;;9.70;99.90;;;;;;13073999;22;20749;-84
2021/04/21 17:41:16;;;;;;;1.25;0.08;;;9.70;99.90;;;;;;13075920;22;20030;-84
2021/04/21 17:46:17;;;;;;;2.75;0.30;;;9.60;99.90;;;;;;13108675;22;20003;-83
2021/04/21 17:51:22;;;;;;;3.45;0.70;;;9.60;99.90;;;;;;13055805;22;20022;-84
2021/04/21 17:56:22;;;;;;;4.97;0.70;;;9.50;99.90;;;;;;13055767;22;20726;-84
2021/04/21 18:01:23;;;;;;;2.88;0.40;;;9.40;99.90;;;;;;13059213;22;20066;-81
2021/04/21 18:06:24;;;;;;;4.53;0.20;;;9.30;99.90;;;;;;13079274;22;20010;-81
2021/04/21 18:11:24;;;;;;;0.85;0.50;;;9.20;99.90;;;;;;13095918;22;20052;-82
2021/04/21 18:16:25;;;;;;;3.13;0.50;;;9.10;99.90;;;;;;13078146;22;20029;-82
2021/04/21 18:21:26;;;;;;;1.27;0.57;;;9.00;99.90;;;;;;13051876;22;20014;-81
2021/04/21 18:26:26;;;;;;;3.22;0.28;;;8.90;99.90;;;;;;13075539;22;20030;-82
2021/04/21 18:31:27;;;;;;;5.55;0.40;;;8.70;99.90;;;;;;13046030;22;20018;-81
2021/04/21 18:36:27;;;;;;;1.92;0.28;;;8.80;99.90;;;;;;13041630;22;20097;-82
2021/04/21 18:41:28;;;;;;;1.35;0.30;;;8.70;99.90;;;;;;13042367;22;20088;-82
2021/04/21 18:46:29;;;;;;;1.55;0.50;;;8.60;99.90;;;;;;13071512;22;20044;-82
2021/04/21 18:51:35;;;;;;;3.45;1.25;;;8.60;99.90;;;;;;13072399;22;20064;-82
2021/04/21 18:56:37;;;;;;;6.05;0.60;;;8.60;99.90;;;;;;13074310;22;20011;-82
2021/04/21 19:01:38;;;;;;;4.63;0.77;;;8.40;99.90;;;;;;13097867;22;20072;-82
2021/04/21 19:06:38;;;;;;;2.25;0.52;;;8.40;99.90;;;;;;13045948;22;20080;-82
2021/04/21 19:11:39;;;;;;;1.65;0.45;;;8.30;99.90;;;;;;13070931;22;20025;-82
2021/04/21 19:16:40;;;;;;;2.75;0.35;;;8.20;99.90;;;;;;13045682;22;20153;-82
2021/04/21 19:21:41;;;;;;;0.65;0.38;;;8.20;99.90;;;;;;13046050;22;20015;-81
2021/04/21 19:26:43;;;;;;;7.65;0.85;;;8.10;99.90;;;;;;13071150;22;20015;-81
2021/04/21 19:31:43;;;;;;;7.53;0.38;;;8.10;99.90;;;;;;13073047;22;20021;-82
2021/04/21 19:36:47;;;;;;;2.78;0.88;;;8.00;99.90;;;;;;13072906;22;20057;-82
2021/04/21 19:41:48;;;;;;;4.50;0.80;;;7.90;99.90;;;;;;13071715;22;20106;-81
2021/04/21 19:46:50;;;;;;;6.68;2.40;;;7.90;99.90;;;;;;13100022;22;20018;-81
2021/04/21 19:51:51;;;;;;;1.08;0.40;;;7.90;99.90;;;;;;13098844;22;20018;-81
2021/04/21 19:56:52;;;;;;;1.25;0.35;;;7.80;99.90;;;;;;13074131;22;20017;-81
2021/04/21 20:01:53;;;;;;;7.88;0.50;;;7.80;99.90;;;;;;13072295;22;20011;-81
2021/04/21 20:06:54;;;;;;;1.52;0.30;;;7.70;99.90;;;;;;13072335;22;20514;-81
2021/04/21 20:11:55;;;;;;;5.20;0.70;;;7.70;99.90;;;;;;13044328;22;20030;-81
2021/04/21 20:16:55;;;;;;;1.40;0.60;;;7.70;99.90;;;;;;13045771;22;20011;-81
2021/04/21 20:21:57;;;;;;;0.77;0.30;;;7.70;99.90;;;;;;13072050;22;20009;-81
2021/04/21 20:26:58;;;;;;;0.85;0.40;;;7.80;99.90;;;;;;13045922;22;20080;-81
2021/04/21 20:31:59;;;;;;;4.25;0.40;;;7.80;99.90;;;;;;13100151;22;20033;-81
2021/04/21 20:37:00;;;;;;;2.42;1.17;;;7.70;99.90;;;;;;13071264;22;20997;-81
2021/04/21 20:42:01;;;;;;;4.20;0.30;;;7.70;99.90;;;;;;13070795;22;20049;-81
2021/04/21 20:47:03;;;;;;;0.82;0.20;;;7.80;99.90;;;;;;13047851;22;20319;-81
2021/04/21 20:52:04;;;;;;;0.98;0.32;;;7.80;99.90;;;;;;13073786;22;20007;-81
2021/04/21 20:57:06;;;;;;;2.78;1.35;;;7.80;99.90;;;;;;13097669;22;20006;-81
2021/04/21 21:02:08;;;;;;;2.35;0.63;;;7.80;99.90;;;;;;13101176;22;20330;-81
2021/04/21 21:07:08;;;;;;;2.63;0.63;;;7.60;99.90;;;;;;13051419;22;20007;-81
2021/04/21 21:12:10;;;;;;;2.50;0.47;;;7.60;99.90;;;;;;13079040;22;20002;-81
2021/04/21 21:17:10;;;;;;;2.38;0.52;;;7.60;99.90;;;;;;13078409;22;20015;-82
2021/04/21 21:22:11;;;;;;;7.75;0.63;;;7.50;99.90;;;;;;13053296;22;20013;-81
2021/04/21 21:27:11;;;;;;;1.02;0.38;;;7.40;99.90;;;;;;13103925;22;20002;-82
2021/04/21 21:32:12;;;;;;;1.85;0.40;;;7.40;99.90;;;;;;13054156;22;20010;-81
2021/04/21 21:37:14;;;;;;;5.60;1.08;;;7.30;99.90;;;;;;13104989;22;20003;-82
2021/04/21 21:42:15;;;;;;;3.85;0.60;;;7.20;99.90;;;;;;13052751;22;20019;-81
2021/04/21 21:47:17;;;;;;;1.83;0.50;;;7.20;99.90;;;;;;13052454;22;20092;-81
2021/04/21 21:52:17;;;;;;;1.50;0.73;;;7.20;99.90;;;;;;13105858;22;20455;-81
2021/04/21 21:57:18;;;;;;;1.48;0.63;;;7.10;99.90;;;;;;13077775;22;20006;-81
2021/04/21 22:02:18;;;;;;;7.15;1.98;;;7.00;99.90;;;;;;13053663;22;20017;-81
2021/04/21 22:07:22;;;;;;;8.82;0.52;;;6.90;99.90;;;;;;13054275;22;20090;-81
2021/04/21 22:12:23;;;;;;;5.07;0.60;;;6.90;99.90;;;;;;13080573;22;20031;-81
2021/04/21 22:17:23;;;;;;;4.22;0.60;;;6.90;99.90;;;;;;13080665;22;20064;-81
2021/04/21 22:22:24;;;;;;;4.18;0.50;;;6.80;99.90;;;;;;13113970;22;20040;-81
2021/04/21 22:27:25;;;;;;;1.88;0.50;;;6.70;99.90;;;;;;13082814;22;20402;-81
2021/04/21 22:32:25;;;;;;;3.70;0.70;;;6.70;99.90;;;;;;13049382;22;20023;-81
2021/04/21 22:37:26;;;;;;;2.72;0.63;;;6.60;99.90;;;;;;13076626;22;20431;-81
2021/04/21 22:42:27;;;;;;;4.07;0.65;;;6.50;99.90;;;;;;13100409;22;20021;-81
2021/04/21 22:47:27;;;;;;;1.23;0.70;;;6.40;99.90;;;;;;13076459;22;20354;-81
2021/04/21 22:52:28;;;;;;;8.27;0.30;;;6.30;99.90;;;;;;13105321;22;20061;-81
2021/04/21 22:57:28;;;;;;;6.45;0.70;;;6.30;99.90;;;;;;13103396;22;20038;-81
2021/04/21 23:02:29;;;;;;;1.75;0.32;;;6.30;99.90;;;;;;13079049;22;20380;-82
2021/04/21 23:07:29;;;;;;;2.25;1.13;;;6.10;99.90;;;;;;13078948;22;20014;-82
2021/04/21 23:12:30;;;;;;;3.85;0.68;;;6.10;99.90;;;;;;13051931;22;20018;-82
2021/04/21 23:17:31;;;;;;;1.52;0.40;;;6.10;99.90;;;;;;13053912;22;20116;-82
2021/04/21 23:22:31;;;;;;;1.10;0.60;;;6.20;99.90;;;;;;13053271;22;20010;-81
2021/04/21 23:27:33;;;;;;;2.97;0.95;;;6.20;99.90;;;;;;13053523;22;20022;-82
2021/04/21 23:32:33;;;;;;;3.40;0.50;;;6.20;99.90;;;;;;13079068;22;20021;-82
2021/04/21 23:37:35;;;;;;;3.65;0.63;;;6.20;99.90;;;;;;13078832;22;20093;-82
2021/04/21 23:42:35;;;;;;;3.17;0.55;;;6.30;99.90;;;;;;13051673;22;20084;-82
2021/04/21 23:47:37;;;;;;;1.98;0.45;;;6.30;99.90;;;;;;13079527;22;20036;-80
2021/04/21 23:52:38;;;;;;;4.88;0.65;;;6.40;99.90;;;;;;13052300;22;20014;-82
2021/04/21 23:57:39;;;;;;;0.95;0.38;;;6.40;99.90;;;;;;13050427;22;20701;-82
